KVEL/VEL METAR and TAF weather

Enter ICAO airport designator
Station Type Date Time Source
KVEL METAR 2021/01/20 21:53 UTC NOAA

KVEL 202153Z AUTO 20004KT 10SM CLR M01/M10 A3018 RMK AO2 SLP266 T10061100


Station Type Date Time Source
KVEL Decoded METAR 2021/01/20 21:53 UTC NOAA

VERNAL AIRPORT, UT, United States (KVEL) 40-26N 109-30W 1604M
Jan 20, 2021 - 04:53 PM EST / 2021.01.20 2153 UTC
Wind: from the SSW (200 degrees) at 5 MPH (4 KT):0
Visibility: 10 mile(s):0
Sky conditions: clear
Temperature: 30.9 F (-0.6 C)
Windchill: 26 F (-3 C):1
Dew Point: 14.0 F (-10.0 C)
Relative Humidity: 48%
Pressure (altimeter): 30.18 in. Hg (1022 hPa)
ob: KVEL 202153Z AUTO 20004KT 10SM CLR M01/M10 A3018 RMK AO2 SLP266 T10061100
cycle: 22

Station Type Date Time Source
KVEL TAF 2021/01/20 18:22 UTC NOAA

TAF KVEL 201720Z 2018/2118 00000KT P6SM FEW150

Example: see airport list